PGUM/GUM METAR and TAF weather

Enter ICAO airport designator
Station Type Date Time Source
PGUM METAR 2019/02/16 02:54 UTC NOAA

PGUM 160254Z 06013G21KT 10SM SCT033 30/22 A2998 RMK AO2 SLP145 T03000217 58024


Station Type Date Time Source
PGUM Decoded METAR 2019/02/16 02:54 UTC NOAA

Agana, Guam International Airport, GU, United States (PGUM) 13-29N 144-48E
Feb 15, 2019 - 09:54 PM EST / 2019.02.16 0254 UTC
Wind: from the ENE (060 degrees) at 15 MPH (13 KT) gusting to 24 MPH (21 KT):0
Visibility: 10 mile(s):0
Sky conditions: partly cloudy
Temperature: 86.0 F (30.0 C)
Heat index: 91.4 F (33.0 C):1
Dew Point: 71.1 F (21.7 C)
Relative Humidity: 61%
Pressure (altimeter): 29.98 in. Hg (1015 hPa)
Pressure tendency: 0.07 inches (2.4 hPa) lower than three hours ago
ob: PGUM 160254Z 06013G21KT 10SM SCT033 30/22 A2998 RMK AO2 SLP145 T03000217 58024
cycle: 3

Station Type Date Time Source
PGUM TAF 2019/02/15 18:39 UTC NOAA

TAF PGUM 151733Z 1518/1624 05011KT P6SM FEW025 FEW050
FM152300 05015G23KT P6SM FEW025 SCT050
FM160900 05011KT P6SM FEW025
FM162300 06015G23KT P6SM FEW020 SCT050


Example: see airport list